createdAt,value
2022-12-23T00:07:56.234Z,7.47
2022-12-23T00:23:05.736Z,7.47
2022-12-23T00:38:09.272Z,7.51
2022-12-23T00:53:12.671Z,7.48
2022-12-23T01:08:15.833Z,7.44
2022-12-23T01:23:19.125Z,7.43
2022-12-23T01:38:22.556Z,7.29
2022-12-23T01:53:31.099Z,7.35
2022-12-23T02:08:52.959Z,7.40
2022-12-23T02:24:37.930Z,7.39
2022-12-23T02:39:51.536Z,7.41
2022-12-23T02:55:00.980Z,7.34
2022-12-23T03:10:36.430Z,7.30
2022-12-23T03:25:47.985Z,7.28
2022-12-23T03:40:56.473Z,7.33
2022-12-23T03:56:04.509Z,7.28
2022-12-23T04:11:08.173Z,7.21
2022-12-23T04:26:11.487Z,7.15
2022-12-23T04:41:15.007Z,7.10
2022-12-23T04:56:18.578Z,7.06
2022-12-23T05:11:21.899Z,6.91
2022-12-23T05:26:25.476Z,6.91
2022-12-23T05:41:28.890Z,6.87
2022-12-23T05:56:32.325Z,6.90
2022-12-23T06:11:35.457Z,6.81
2022-12-23T06:26:38.747Z,6.80
2022-12-23T06:41:41.952Z,6.75
2022-12-23T06:56:45.216Z,6.74
2022-12-23T07:11:48.381Z,6.77
2022-12-23T07:26:52.394Z,6.77
2022-12-23T07:42:16.402Z,6.80
2022-12-23T07:57:18.673Z,6.83
2022-12-23T08:12:21.842Z,6.85
2022-12-23T08:27:24.985Z,6.80
2022-12-23T08:42:28.137Z,6.81
2022-12-23T08:57:31.327Z,6.72
2022-12-23T09:12:34.772Z,6.85
2022-12-23T09:27:38.201Z,6.88
2022-12-23T09:43:03.265Z,6.82
2022-12-23T09:58:23.026Z,6.96
2022-12-23T10:13:28.047Z,6.94
2022-12-23T10:28:31.244Z,6.94
2022-12-23T10:43:53.157Z,7.08
2022-12-23T10:58:58.776Z,7.08
2022-12-23T11:14:02.088Z,7.13
2022-12-23T11:29:11.235Z,7.16
2022-12-23T11:44:43.044Z,7.27
2022-12-23T11:59:50.113Z,7.51
2022-12-23T12:14:59.582Z,7.53
2022-12-23T12:30:09.050Z,7.49
2022-12-23T12:45:15.477Z,7.60
2022-12-23T13:00:21.784Z,7.64
2022-12-23T13:15:50.748Z,7.74
2022-12-23T13:31:16.412Z,7.84
2022-12-23T13:46:49.897Z,7.85
2022-12-23T14:01:53.828Z,7.75
2022-12-23T14:17:31.401Z,7.70
2022-12-23T14:32:50.060Z,7.63
2022-12-23T14:47:53.472Z,7.71
2022-12-23T15:03:00.725Z,7.47
2022-12-23T15:18:12.643Z,7.33
2022-12-23T15:34:00.891Z,7.26
2022-12-23T15:48:46.659Z,7.27
2022-12-23T16:03:54.543Z,7.36
2022-12-23T16:18:58.147Z,7.24
2022-12-23T16:34:07.278Z,7.16
2022-12-23T16:49:20.407Z,7.17
2022-12-23T17:04:23.759Z,7.19
2022-12-23T17:19:29.815Z,7.15
2022-12-23T17:34:33.704Z,7.11
2022-12-23T17:49:37.109Z,7.08
2022-12-23T18:04:40.639Z,7.15
2022-12-23T18:19:44.113Z,7.09
2022-12-23T18:34:48.146Z,6.96
2022-12-23T18:49:51.589Z,6.98
2022-12-23T19:04:54.980Z,6.99
2022-12-23T19:19:58.286Z,6.94
2022-12-23T19:35:01.479Z,6.99
2022-12-23T19:50:06.898Z,6.98
2022-12-23T20:05:10.557Z,7.01
2022-12-23T20:20:13.941Z,7.14
2022-12-23T20:35:17.380Z,7.19
2022-12-23T20:50:21.562Z,7.14
2022-12-23T21:05:25.141Z,7.11
2022-12-23T21:20:28.489Z,7.10
2022-12-23T21:35:31.990Z,6.99
2022-12-23T21:50:35.566Z,7.04
2022-12-23T22:05:39.025Z,7.04
2022-12-23T22:20:46.305Z,6.98
2022-12-23T22:35:56.996Z,6.90
2022-12-23T22:51:04.382Z,6.88
2022-12-23T23:06:10.040Z,6.63
2022-12-23T23:21:14.713Z,6.60
2022-12-23T23:36:18.102Z,6.69
2022-12-23T23:51:21.465Z,6.75
